Time;durP1;ratioP1;P1;durP2;ratioP2;P2;SDS_P1;SDS_P2;PMS_P1;PMS_P2;Temp;Humidity;BMP_temperature;BMP_pressure;BME280_temperature;BME280_humidity;BME280_pressure;Samples;Min_cycle;Max_cycle;Signal;HPM_P1;HPM_P2
2022/03/30 00:01:38;;;;;;;64.53;28.93;;;3.60;99.90;;;;;;4456208;32;20184;-69
2022/03/30 00:04:05;;;;;;;64.47;28.40;;;3.60;99.90;;;;;;4455703;32;20620;-70
2022/03/30 00:06:32;;;;;;;65.50;27.93;;;3.60;99.90;;;;;;4455574;32;20225;-69
2022/03/30 00:08:59;;;;;;;65.73;28.83;;;3.60;99.90;;;;;;4456290;32;20527;-69
2022/03/30 00:11:26;;;;;;;62.77;28.33;;;3.60;99.90;;;;;;4456401;32;20197;-69
2022/03/30 00:13:53;;;;;;;63.37;28.03;;;3.50;99.90;;;;;;4457274;32;20197;-70
2022/03/30 00:16:20;;;;;;;65.83;28.03;;;3.50;99.90;;;;;;4455707;32;20176;-69
2022/03/30 00:18:47;;;;;;;61.00;27.53;;;3.50;99.90;;;;;;4455289;32;20521;-69
2022/03/30 00:21:14;;;;;;;59.13;28.00;;;3.60;99.90;;;;;;4457209;32;20192;-69
2022/03/30 00:23:40;;;;;;;61.60;27.50;;;3.60;99.90;;;;;;4457213;32;20176;-69
2022/03/30 00:26:07;;;;;;;59.73;26.70;;;3.50;99.90;;;;;;4457294;32;20187;-69
2022/03/30 00:28:34;;;;;;;63.07;27.47;;;3.50;99.90;;;;;;4454937;32;20166;-69
2022/03/30 00:31:01;;;;;;;59.57;27.33;;;3.50;99.90;;;;;;4457920;32;20171;-69
2022/03/30 00:33:28;;;;;;;64.53;29.63;;;3.40;99.90;;;;;;4455620;32;20193;-70
2022/03/30 00:35:55;;;;;;;63.03;28.17;;;3.40;99.90;;;;;;4458278;32;20155;-69
2022/03/30 00:38:22;;;;;;;67.53;28.83;;;3.40;99.90;;;;;;4456403;32;20142;-69
2022/03/30 00:40:49;;;;;;;68.30;29.13;;;3.30;99.90;;;;;;4456118;32;20204;-69
2022/03/30 00:43:16;;;;;;;63.17;28.60;;;3.30;99.90;;;;;;4456833;32;20182;-69
2022/03/30 00:45:44;;;;;;;59.87;27.00;;;3.30;99.90;;;;;;4456845;32;20407;-69
2022/03/30 00:48:11;;;;;;;60.87;28.33;;;3.30;99.90;;;;;;4454265;32;20463;-69
2022/03/30 00:50:38;;;;;;;64.57;28.33;;;3.30;99.90;;;;;;4458455;32;20262;-69
2022/03/30 00:53:05;;;;;;;62.73;28.90;;;3.20;99.90;;;;;;4455136;32;20174;-69
2022/03/30 00:55:34;;;;;;;65.40;28.60;;;3.20;99.90;;;;;;4454396;32;20183;-69
2022/03/30 00:58:02;;;;;;;64.70;27.57;;;3.20;99.90;;;;;;4454075;32;20187;-69
2022/03/30 01:00:29;;;;;;;69.37;29.73;;;3.20;99.90;;;;;;4457070;32;20155;-69
2022/03/30 01:02:56;;;;;;;63.30;28.73;;;3.20;99.90;;;;;;4457050;32;20178;-69
2022/03/30 01:05:23;;;;;;;66.07;28.00;;;3.20;99.90;;;;;;4455140;32;20174;-69
2022/03/30 01:07:50;;;;;;;62.87;27.80;;;3.20;99.90;;;;;;4454609;32;20181;-69
2022/03/30 01:10:18;;;;;;;67.03;28.93;;;3.20;99.90;;;;;;4454986;32;20244;-69
2022/03/30 01:12:47;;;;;;;70.20;30.00;;;3.20;99.90;;;;;;4454996;32;20308;-69
2022/03/30 01:15:15;;;;;;;65.17;29.17;;;3.20;99.90;;;;;;4456743;32;20463;-69
2022/03/30 01:17:42;;;;;;;70.47;30.30;;;3.20;99.90;;;;;;4456420;32;20138;-69
2022/03/30 01:20:10;;;;;;;69.17;30.43;;;3.20;99.90;;;;;;4456353;32;20235;-69
2022/03/30 01:22:39;;;;;;;68.53;28.97;;;3.20;99.90;;;;;;4456709;32;20240;-69
2022/03/30 01:25:07;;;;;;;64.47;28.67;;;3.20;99.90;;;;;;4458622;32;20192;-70
2022/03/30 01:27:33;;;;;;;67.20;30.13;;;3.20;99.90;;;;;;4454337;32;20207;-69
2022/03/30 01:33:06;;;;;;;68.80;27.87;;;3.30;99.90;;;;;;4456431;32;20492;-69
2022/03/30 01:35:35;;;;;;;58.90;27.57;;;3.30;99.90;;;;;;4456477;32;20178;-69
2022/03/30 01:38:02;;;;;;;62.63;28.13;;;3.30;99.90;;;;;;4455691;32;20209;-69
2022/03/30 01:40:29;;;;;;;66.53;29.70;;;3.30;99.90;;;;;;4454591;32;20195;-69
2022/03/30 01:42:56;;;;;;;67.00;29.27;;;3.30;99.90;;;;;;4456273;32;20231;-69
2022/03/30 01:45:23;;;;;;;67.30;29.47;;;3.30;99.90;;;;;;4457424;32;20214;-69
2022/03/30 01:47:57;;;;;;;66.10;28.93;;;3.30;99.90;;;;;;4454381;32;20525;-69
2022/03/30 01:50:25;;;;;;;66.03;28.83;;;3.30;99.90;;;;;;4454695;32;20166;-69
2022/03/30 01:52:52;;;;;;;60.93;28.40;;;3.40;99.90;;;;;;4455377;32;20236;-69
2022/03/30 01:55:20;;;;;;;66.90;29.23;;;3.40;99.90;;;;;;4454307;32;20209;-69
2022/03/30 01:57:47;;;;;;;64.60;29.17;;;3.40;99.90;;;;;;4456227;32;20469;-69
2022/03/30 02:00:16;;;;;;;64.70;29.37;;;3.50;99.90;;;;;;4455385;32;20391;-69
2022/03/30 02:02:43;;;;;;;65.30;28.03;;;3.50;99.90;;;;;;4455947;32;20421;-69
2022/03/30 02:05:10;;;;;;;68.43;28.10;;;3.50;99.90;;;;;;4454785;32;20201;-69
2022/03/30 02:07:38;;;;;;;62.53;27.13;;;3.50;99.90;;;;;;4456676;32;20515;-69
2022/03/30 02:10:08;;;;;;;60.03;26.87;;;3.50;99.90;;;;;;4455516;32;20179;-69
2022/03/30 02:12:35;;;;;;;61.03;27.67;;;3.50;99.90;;;;;;4454066;32;20216;-69
2022/03/30 02:15:02;;;;;;;60.90;28.50;;;3.50;99.90;;;;;;4454735;32;20186;-70
2022/03/30 02:17:29;;;;;;;58.03;26.30;;;3.50;99.90;;;;;;4455646;32;20194;-69
2022/03/30 02:19:56;;;;;;;61.60;28.00;;;3.50;99.90;;;;;;4454993;32;20206;-69
2022/03/30 02:22:23;;;;;;;61.47;27.27;;;3.50;99.90;;;;;;4455657;32;20200;-69
2022/03/30 02:24:51;;;;;;;63.40;28.77;;;3.40;99.90;;;;;;4456907;32;20148;-70
2022/03/30 02:27:22;;;;;;;64.33;28.13;;;3.40;99.90;;;;;;4454832;32;20187;-69
2022/03/30 02:29:50;;;;;;;63.30;28.57;;;3.30;99.90;;;;;;4454567;32;20192;-69
2022/03/30 02:32:21;;;;;;;65.47;28.90;;;3.30;99.90;;;;;;4453768;32;20190;-69
2022/03/30 02:34:48;;;;;;;62.67;28.53;;;3.30;99.90;;;;;;4455070;32;20500;-69
2022/03/30 02:37:15;;;;;;;65.30;29.00;;;3.20;99.90;;;;;;4454617;32;20203;-69
2022/03/30 02:39:42;;;;;;;62.13;29.50;;;3.20;99.90;;;;;;4454294;32;20276;-70
2022/03/30 02:42:09;;;;;;;63.70;29.50;;;3.10;99.90;;;;;;4455232;32;20210;-69
2022/03/30 02:44:37;;;;;;;63.57;29.63;;;3.10;99.90;;;;;;4453578;32;20276;-69
2022/03/30 02:47:05;;;;;;;65.90;29.83;;;3.10;99.90;;;;;;4455397;32;20209;-69
2022/03/30 02:49:32;;;;;;;70.57;31.53;;;3.10;99.90;;;;;;4455338;32;20504;-69
2022/03/30 02:51:59;;;;;;;73.00;31.30;;;3.10;99.90;;;;;;4455394;32;20431;-69
2022/03/30 02:54:26;;;;;;;69.73;31.50;;;3.10;99.90;;;;;;4454781;32;20205;-70
2022/03/30 02:56:53;;;;;;;68.37;30.20;;;3.00;99.90;;;;;;4455057;32;20551;-70
2022/03/30 02:59:21;;;;;;;66.40;30.03;;;3.00;99.90;;;;;;4454811;32;20199;-69
2022/03/30 03:01:48;;;;;;;61.63;30.00;;;2.90;99.90;;;;;;4453566;32;20197;-69
2022/03/30 03:04:15;;;;;;;68.80;30.30;;;2.90;99.90;;;;;;4454544;32;20190;-69
2022/03/30 03:06:43;;;;;;;68.37;30.00;;;2.90;99.90;;;;;;4455415;32;20174;-69
2022/03/30 03:09:10;;;;;;;66.77;32.47;;;2.90;99.90;;;;;;4454031;32;20458;-69
2022/03/30 03:11:37;;;;;;;70.90;32.13;;;2.90;99.90;;;;;;4455046;32;20258;-69
2022/03/30 03:14:07;;;;;;;73.07;31.50;;;2.80;99.90;;;;;;4454637;32;20156;-69
2022/03/30 03:16:34;;;;;;;69.83;31.53;;;2.80;99.90;;;;;;4453718;32;20513;-69
2022/03/30 03:19:02;;;;;;;71.00;31.77;;;2.80;99.90;;;;;;4454073;32;20468;-69
2022/03/30 03:21:29;;;;;;;69.53;31.83;;;2.70;99.90;;;;;;4454316;32;20174;-69
2022/03/30 03:23:56;;;;;;;67.63;30.50;;;2.70;99.90;;;;;;4454592;32;20200;-69
2022/03/30 03:26:23;;;;;;;67.67;32.10;;;2.70;99.90;;;;;;4456112;32;20213;-69
2022/03/30 03:28:50;;;;;;;69.07;30.80;;;2.70;99.90;;;;;;4454809;32;20211;-69
2022/03/30 03:31:17;;;;;;;64.10;30.67;;;2.70;99.90;;;;;;4452344;32;20448;-69
2022/03/30 03:33:44;;;;;;;69.07;30.50;;;2.60;99.90;;;;;;4454735;32;20294;-69
2022/03/30 03:36:11;;;;;;;71.77;30.07;;;2.60;99.90;;;;;;4455083;32;20439;-69
2022/03/30 03:38:38;;;;;;;69.17;30.80;;;2.60;99.90;;;;;;4452988;32;20227;-69
2022/03/30 03:41:05;;;;;;;70.00;30.40;;;2.60;99.90;;;;;;4454795;32;20404;-69
2022/03/30 03:43:32;;;;;;;65.07;28.23;;;2.50;99.90;;;;;;4453135;32;20554;-69
2022/03/30 03:45:59;;;;;;;63.90;29.33;;;2.50;99.90;;;;;;4452996;32;20520;-69
2022/03/30 03:48:26;;;;;;;65.07;28.03;;;2.50;99.90;;;;;;4455879;32;20524;-69
2022/03/30 03:50:53;;;;;;;64.30;29.13;;;2.50;99.90;;;;;;4453678;32;20172;-69
2022/03/30 03:53:20;;;;;;;62.20;27.13;;;2.50;99.90;;;;;;4453396;32;20179;-69
2022/03/30 03:55:47;;;;;;;65.43;28.93;;;2.50;99.90;;;;;;4453421;32;20249;-69
2022/03/30 03:58:13;;;;;;;69.67;29.50;;;2.40;99.90;;;;;;4453473;32;20196;-69
2022/03/30 04:00:40;;;;;;;65.53;28.50;;;2.50;99.90;;;;;;4454260;32;20187;-69
2022/03/30 04:03:07;;;;;;;64.93;28.80;;;2.40;99.90;;;;;;4454539;32;20200;-69
2022/03/30 04:05:35;;;;;;;61.30;27.57;;;2.40;99.90;;;;;;4453842;32;20221;-69
2022/03/30 04:08:02;;;;;;;68.63;28.00;;;2.40;99.90;;;;;;4454816;32;20175;-69
2022/03/30 04:10:29;;;;;;;64.63;29.00;;;2.40;99.90;;;;;;4452143;32;20206;-69
2022/03/30 04:12:56;;;;;;;55.87;26.90;;;2.40;99.90;;;;;;4455414;32;20192;-69
2022/03/30 04:15:23;;;;;;;60.63;28.00;;;2.40;99.90;;;;;;4453358;32;20179;-69
2022/03/30 04:17:50;;;;;;;62.67;26.97;;;2.40;99.90;;;;;;4454330;32;20202;-69
2022/03/30 04:20:17;;;;;;;62.67;27.67;;;2.40;99.90;;;;;;4454721;32;20456;-70
2022/03/30 04:22:43;;;;;;;65.10;28.70;;;2.30;99.90;;;;;;4454072;32;20201;-69
2022/03/30 04:25:11;;;;;;;61.17;27.50;;;2.30;99.90;;;;;;4454289;32;20606;-69
2022/03/30 04:27:49;;;;;;;63.40;28.57;;;2.30;99.90;;;;;;4453124;32;20189;-69
2022/03/30 04:30:17;;;;;;;69.17;29.00;;;2.30;99.90;;;;;;4456062;32;20232;-69
2022/03/30 04:32:45;;;;;;;62.50;28.43;;;2.30;99.90;;;;;;4454857;32;20193;-69
2022/03/30 04:35:18;;;;;;;63.77;28.00;;;2.30;99.90;;;;;;4457622;32;20431;-69
2022/03/30 04:37:45;;;;;;;60.63;27.23;;;2.20;99.90;;;;;;4456955;32;20190;-69
2022/03/30 04:40:12;;;;;;;65.53;28.17;;;2.20;99.90;;;;;;4456889;32;20175;-69
2022/03/30 04:42:39;;;;;;;58.23;27.40;;;2.10;99.90;;;;;;4454635;32;20221;-69
2022/03/30 04:45:06;;;;;;;64.97;27.77;;;2.10;99.90;;;;;;4456563;32;20185;-69
2022/03/30 04:47:33;;;;;;;67.73;28.60;;;2.00;99.90;;;;;;4456696;32;20201;-69
2022/03/30 04:50:00;;;;;;;60.37;27.10;;;2.00;99.90;;;;;;4457011;32;20178;-69
2022/03/30 04:52:27;;;;;;;64.57;27.93;;;1.90;99.90;;;;;;4454325;32;20567;-69
2022/03/30 04:54:53;;;;;;;62.87;27.07;;;1.90;99.90;;;;;;4457217;32;20399;-69
2022/03/30 04:57:20;;;;;;;65.20;28.80;;;1.90;99.90;;;;;;4456656;32;20483;-69
2022/03/30 04:59:47;;;;;;;66.80;28.90;;;1.90;99.90;;;;;;4456154;32;20178;-69
2022/03/30 05:02:14;;;;;;;60.80;28.00;;;1.90;99.90;;;;;;4455406;32;20185;-69
2022/03/30 05:04:41;;;;;;;66.63;28.37;;;1.90;99.90;;;;;;4455046;32;20201;-68
2022/03/30 05:07:09;;;;;;;70.23;29.37;;;2.00;99.90;;;;;;4455481;32;20532;-69
2022/03/30 05:09:35;;;;;;;63.40;27.50;;;1.90;99.90;;;;;;4457542;32;20150;-69
2022/03/30 05:12:03;;;;;;;67.23;30.00;;;2.00;99.90;;;;;;4456891;32;20158;-69
2022/03/30 05:14:29;;;;;;;60.67;28.60;;;2.00;99.90;;;;;;4457766;32;20172;-69
2022/03/30 05:16:57;;;;;;;68.80;29.07;;;2.00;99.90;;;;;;4458005;32;20503;-69
2022/03/30 05:19:24;;;;;;;70.13;29.83;;;2.10;99.90;;;;;;4456716;32;20180;-69
2022/03/30 05:21:51;;;;;;;62.50;29.00;;;2.10;99.90;;;;;;4455555;32;20441;-69
2022/03/30 05:24:18;;;;;;;65.27;28.90;;;2.10;99.90;;;;;;4455395;32;20426;-68
2022/03/30 05:26:45;;;;;;;65.03;28.70;;;2.10;99.90;;;;;;4455426;32;20200;-68
2022/03/30 05:29:12;;;;;;;68.03;30.40;;;2.20;99.90;;;;;;4456675;32;20194;-68
2022/03/30 05:31:39;;;;;;;65.47;30.00;;;2.20;99.90;;;;;;4454694;32;20213;-69
2022/03/30 05:34:17;;;;;;;70.87;30.20;;;2.30;99.90;;;;;;4454475;32;20173;-69
2022/03/30 05:36:44;;;;;;;70.13;29.97;;;2.30;99.90;;;;;;4456076;32;20181;-69
2022/03/30 05:39:11;;;;;;;67.40;30.50;;;2.40;99.90;;;;;;4455882;32;20182;-69
2022/03/30 05:41:38;;;;;;;67.17;29.70;;;2.40;99.90;;;;;;4455352;32;20202;-69
2022/03/30 05:44:05;;;;;;;68.17;30.37;;;2.50;99.90;;;;;;4455630;32;20581;-70
2022/03/30 05:46:32;;;;;;;66.87;29.77;;;2.60;99.90;;;;;;4456627;32;20400;-70
2022/03/30 05:48:59;;;;;;;71.30;30.33;;;2.60;99.90;;;;;;4455823;32;20204;-69
2022/03/30 05:51:26;;;;;;;66.07;29.23;;;2.70;99.90;;;;;;4454015;32;20201;-69
2022/03/30 05:53:52;;;;;;;65.67;29.50;;;2.80;99.90;;;;;;4456160;32;20426;-70
2022/03/30 05:56:59;;;;;;;73.10;31.03;;;2.90;99.90;;;;;;4454731;32;20209;-69
2022/03/30 05:59:12;;;;;;;64.60;30.27;;;3.00;99.90;;;;;;4455071;32;20179;-70
2022/03/30 06:01:38;;;;;;;67.50;30.07;;;3.10;99.90;;;;;;4456509;32;20178;-69
2022/03/30 06:04:06;;;;;;;68.77;29.37;;;3.10;99.90;;;;;;4455743;32;20147;-69
2022/03/30 06:06:34;;;;;;;65.63;28.07;;;3.20;99.90;;;;;;4456376;32;20509;-69
2022/03/30 06:09:05;;;;;;;65.03;27.53;;;3.30;99.90;;;;;;4454766;32;20194;-69
2022/03/30 06:11:32;;;;;;;67.60;29.43;;;3.30;99.90;;;;;;4453659;32;20184;-69
2022/03/30 06:13:59;;;;;;;62.60;28.67;;;3.40;99.90;;;;;;4451481;32;20205;-70
2022/03/30 06:16:27;;;;;;;63.13;28.10;;;3.40;99.90;;;;;;4438426;32;20601;-69
2022/03/30 06:18:54;;;;;;;65.27;28.03;;;3.40;99.90;;;;;;4441378;32;20149;-69
2022/03/30 06:21:22;;;;;;;63.73;29.07;;;3.40;99.90;;;;;;4439090;32;20586;-69
2022/03/30 06:23:50;;;;;;;59.67;28.37;;;3.50;99.90;;;;;;4439618;32;20184;-69
2022/03/30 06:26:17;;;;;;;63.63;29.23;;;3.60;99.90;;;;;;4439371;32;20472;-69
2022/03/30 06:28:44;;;;;;;69.30;30.20;;;3.70;99.90;;;;;;4438274;32;20243;-69
2022/03/30 06:31:13;;;;;;;63.47;28.23;;;3.80;99.90;;;;;;4438471;32;20170;-69
2022/03/30 06:33:40;;;;;;;64.53;28.57;;;3.90;99.90;;;;;;4437165;32;20417;-69
2022/03/30 06:36:07;;;;;;;59.20;27.63;;;3.90;99.90;;;;;;4439022;32;20214;-69
2022/03/30 06:38:33;;;;;;;61.17;27.47;;;3.90;99.90;;;;;;4447120;32;20236;-69
2022/03/30 06:41:00;;;;;;;62.17;27.73;;;4.10;99.90;;;;;;4441654;32;20216;-69
2022/03/30 06:43:27;;;;;;;62.40;27.63;;;4.10;99.90;;;;;;4438586;32;20464;-69
2022/03/30 06:45:54;;;;;;;65.77;28.00;;;4.30;99.90;;;;;;4439739;32;20395;-69
2022/03/30 06:48:21;;;;;;;57.60;26.43;;;4.30;99.90;;;;;;4440211;32;20195;-69
2022/03/30 06:50:48;;;;;;;51.67;24.43;;;4.40;99.90;;;;;;4438569;32;20196;-69
2022/03/30 06:53:15;;;;;;;58.40;25.40;;;4.50;99.90;;;;;;4438182;32;20208;-70
2022/03/30 06:55:41;;;;;;;56.50;24.43;;;4.60;99.90;;;;;;4437946;32;20220;-70
2022/03/30 06:58:08;;;;;;;53.53;24.40;;;4.80;99.90;;;;;;4438231;32;20517;-70
2022/03/30 07:00:36;;;;;;;48.83;23.43;;;4.90;99.90;;;;;;4440092;32;20169;-69
2022/03/30 07:03:03;;;;;;;49.23;23.90;;;5.00;99.90;;;;;;4438526;32;20221;-69
2022/03/30 07:05:32;;;;;;;54.73;23.87;;;5.00;99.90;;;;;;4437901;32;20172;-70
2022/03/30 07:10:44;;;;;;;48.53;21.60;;;5.30;99.90;;;;;;4439908;32;20185;-70
2022/03/30 07:13:11;;;;;;;43.20;21.67;;;5.40;99.90;;;;;;4440204;32;20154;-70
2022/03/30 07:15:38;;;;;;;48.30;22.37;;;5.50;99.90;;;;;;4439149;32;20192;-70
2022/03/30 07:18:08;;;;;;;51.07;21.73;;;5.60;99.90;;;;;;4438194;32;20219;-70
2022/03/30 07:20:36;;;;;;;44.23;20.20;;;5.70;99.90;;;;;;4439605;32;20190;-70
2022/03/30 07:23:03;;;;;;;44.93;20.47;;;5.80;99.90;;;;;;4438051;32;20180;-70
2022/03/30 07:25:31;;;;;;;45.87;21.40;;;5.90;99.90;;;;;;4443960;32;20183;-69
2022/03/30 07:27:59;;;;;;;40.70;20.00;;;5.90;99.90;;;;;;4438775;32;20173;-70
2022/03/30 07:30:26;;;;;;;44.87;20.43;;;5.90;99.90;;;;;;4437728;32;20170;-68
2022/03/30 07:32:55;;;;;;;40.43;19.87;;;6.10;99.90;;;;;;4437624;32;20605;-68
2022/03/30 07:35:24;;;;;;;41.60;19.47;;;6.20;99.90;;;;;;4438837;32;20474;-71
2022/03/30 07:37:51;;;;;;;37.40;19.17;;;6.40;99.90;;;;;;4437983;32;20209;-71
2022/03/30 07:40:21;;;;;;;37.07;16.90;;;6.50;99.90;;;;;;4439185;32;20181;-71
2022/03/30 07:42:49;;;;;;;36.80;16.67;;;6.60;99.90;;;;;;4438548;32;20186;-72
2022/03/30 07:45:17;;;;;;;34.33;16.17;;;6.70;99.90;;;;;;4427723;32;20237;-70
2022/03/30 07:47:44;;;;;;;33.37;14.97;;;6.80;99.90;;;;;;4437686;32;20536;-70
2022/03/30 07:50:12;;;;;;;35.40;16.57;;;7.00;99.90;;;;;;4439434;32;20190;-70
2022/03/30 07:52:40;;;;;;;38.03;18.33;;;7.00;99.90;;;;;;4438810;32;20184;-71
2022/03/30 07:55:09;;;;;;;37.37;16.47;;;7.00;99.90;;;;;;4438884;32;20170;-68
2022/03/30 07:57:37;;;;;;;35.77;15.77;;;6.90;99.90;;;;;;4437450;32;20610;-68
2022/03/30 08:00:07;;;;;;;31.03;13.27;;;7.00;99.90;;;;;;4439944;32;20520;-66
2022/03/30 08:02:34;;;;;;;27.10;13.27;;;7.10;99.90;;;;;;4437540;32;20223;-67
2022/03/30 08:05:02;;;;;;;30.47;14.10;;;6.90;99.90;;;;;;4439538;32;20166;-68
2022/03/30 08:07:30;;;;;;;27.00;11.73;;;7.00;99.90;;;;;;4433280;32;20201;-68
2022/03/30 08:09:57;;;;;;;25.83;11.80;;;7.10;99.90;;;;;;4428400;32;20204;-68
2022/03/30 08:12:25;;;;;;;25.57;11.67;;;7.30;99.90;;;;;;4426166;32;20157;-68
2022/03/30 08:14:54;;;;;;;28.50;12.53;;;7.40;99.90;;;;;;4424417;32;20176;-68
2022/03/30 08:17:21;;;;;;;24.47;11.50;;;7.60;99.90;;;;;;4426589;32;20201;-68
2022/03/30 08:19:48;;;;;;;23.27;10.47;;;7.50;99.90;;;;;;4425012;32;20198;-68
2022/03/30 08:22:28;;;;;;;25.83;10.83;;;7.60;99.90;;;;;;4426576;32;20241;-68
2022/03/30 08:25:06;;;;;;;26.37;10.93;;;7.70;99.90;;;;;;4437498;32;20182;-68
2022/03/30 08:27:35;;;;;;;21.57;10.63;;;7.90;99.90;;;;;;4452428;32;20244;-69
2022/03/30 08:30:04;;;;;;;25.63;11.43;;;7.90;99.90;;;;;;4455548;32;20212;-68
2022/03/30 08:32:31;;;;;;;26.53;11.20;;;8.20;99.90;;;;;;4458379;32;20200;-67
2022/03/30 08:34:59;;;;;;;22.83;9.70;;;8.80;99.90;;;;;;4457028;32;20558;-69
2022/03/30 08:37:26;;;;;;;19.90;9.03;;;9.50;99.90;;;;;;4456960;32;20150;-72
2022/03/30 08:39:55;;;;;;;20.43;9.37;;;9.80;99.90;;;;;;4453185;32;20536;-69
2022/03/30 08:42:22;;;;;;;20.63;8.03;;;10.20;99.90;;;;;;4455558;32;20204;-70
2022/03/30 08:44:52;;;;;;;18.93;7.60;;;10.50;99.90;;;;;;4457146;32;20157;-69
2022/03/30 08:47:19;;;;;;;20.30;7.77;;;10.50;99.90;;;;;;4456842;32;20208;-70
2022/03/30 08:49:50;;;;;;;20.23;8.17;;;10.60;99.90;;;;;;4439608;32;20698;-69
2022/03/30 08:52:18;;;;;;;17.30;7.20;;;10.90;99.90;;;;;;4452731;32;20265;-71
2022/03/30 08:54:46;;;;;;;16.57;7.03;;;11.00;99.10;;;;;;4455547;32;20185;-70
2022/03/30 08:57:13;;;;;;;15.03;6.63;;;11.20;97.60;;;;;;4455225;32;20209;-70
2022/03/30 09:00:19;;;;;;;19.83;7.40;;;11.40;96.20;;;;;;4457269;32;20215;-71
2022/03/30 09:02:50;;;;;;;17.77;6.97;;;11.20;96.60;;;;;;4451184;32;20430;-71
2022/03/30 09:05:20;;;;;;;15.97;6.80;;;11.10;95.10;;;;;;4447000;32;20535;-70
2022/03/30 09:07:51;;;;;;;18.53;6.50;;;10.80;93.70;;;;;;4455317;32;20262;-71
2022/03/30 09:10:23;;;;;;;17.63;6.97;;;10.50;94.00;;;;;;4456599;32;20178;-70
2022/03/30 09:12:52;;;;;;;16.13;6.10;;;10.00;95.10;;;;;;4455099;32;20255;-70
2022/03/30 09:15:20;;;;;;;17.27;6.30;;;9.80;95.60;;;;;;4454569;32;20512;-67
2022/03/30 09:17:58;;;;;;;15.53;6.73;;;9.70;97.70;;;;;;4456454;32;20499;-71
2022/03/30 09:20:35;;;;;;;16.17;7.50;;;10.10;99.90;;;;;;4454941;32;20182;-67
2022/03/30 09:23:02;;;;;;;19.57;7.60;;;10.60;99.90;;;;;;4454989;32;20182;-68
2022/03/30 09:25:47;;;;;;;17.97;7.83;;;10.80;99.90;;;;;;4454903;32;20182;-67
2022/03/30 09:28:21;;;;;;;17.97;7.60;;;11.00;99.90;;;;;;4456517;32;20178;-68
2022/03/30 09:30:49;;;;;;;18.13;7.37;;;11.00;98.00;;;;;;4454396;32;20200;-68
2022/03/30 09:33:18;;;;;;;16.63;7.00;;;10.90;99.30;;;;;;4451154;32;20214;-69
2022/03/30 09:35:46;;;;;;;18.30;7.10;;;11.10;97.60;;;;;;4455103;32;20215;-69
2022/03/30 09:38:22;;;;;;;16.17;6.53;;;12.00;99.90;;;;;;4454500;32;20182;-69
2022/03/30 09:40:53;;;;;;;18.67;7.00;;;12.00;96.80;;;;;;4456412;32;20196;-68
2022/03/30 09:43:27;;;;;;;18.90;7.43;;;12.10;95.10;;;;;;4454507;32;20193;-67
2022/03/30 09:46:05;;;;;;;15.27;6.23;;;12.40;93.30;;;;;;4454517;32;20548;-67
2022/03/30 09:48:52;;;;;;;17.57;6.50;;;12.20;94.30;;;;;;4455883;32;20193;-68
2022/03/30 09:51:21;;;;;;;13.10;5.27;;;12.20;92.90;;;;;;4456181;32;20237;-67
2022/03/30 09:53:48;;;;;;;15.90;5.90;;;12.20;91.20;;;;;;4454335;32;20197;-68
2022/03/30 09:56:17;;;;;;;11.57;5.30;;;12.20;92.10;;;;;;4456149;32;20401;-67
2022/03/30 09:58:45;;;;;;;15.80;5.20;;;11.50;91.60;;;;;;4454997;32;20204;-67
2022/03/30 10:01:22;;;;;;;15.97;5.00;;;11.40;91.10;;;;;;4454297;32;20226;-68
2022/03/30 10:03:52;;;;;;;12.73;5.30;;;10.70;91.90;;;;;;4450449;32;20511;-66
2022/03/30 10:06:26;;;;;;;14.57;5.63;;;10.50;93.30;;;;;;4454749;32;20208;-67
2022/03/30 10:08:54;;;;;;;13.50;5.37;;;10.50;93.00;;;;;;4455586;32;20237;-68
2022/03/30 10:11:23;;;;;;;12.07;5.40;;;10.50;92.20;;;;;;4455631;32;20404;-66
2022/03/30 10:13:55;;;;;;;14.27;5.93;;;10.50;93.80;;;;;;4454445;32;20229;-68
2022/03/30 10:16:38;;;;;;;13.70;5.57;;;10.80;93.40;;;;;;4454590;32;20198;-69
2022/03/30 10:19:08;;;;;;;14.27;6.17;;;11.00;93.10;;;;;;4455966;32;20559;-68
2022/03/30 10:22:02;;;;;;;13.47;5.90;;;11.10;92.50;;;;;;4453969;32;20166;-68
2022/03/30 10:24:31;;;;;;;14.73;5.77;;;11.10;90.60;;;;;;4454112;32;20190;-69
2022/03/30 10:27:30;;;;;;;16.70;6.10;;;11.30;92.70;;;;;;4453222;32;20250;-68
2022/03/30 10:30:05;;;;;;;10.97;5.53;;;11.60;89.30;;;;;;4455362;32;20181;-67
2022/03/30 10:32:36;;;;;;;16.70;6.27;;;11.90;90.70;;;;;;4453282;32;20177;-69
2022/03/30 10:35:13;;;;;;;12.97;6.40;;;12.00;88.70;;;;;;4453463;32;20177;-68
2022/03/30 10:37:43;;;;;;;12.17;5.87;;;12.00;85.30;;;;;;4453555;32;20178;-69
2022/03/30 10:40:24;;;;;;;14.47;6.50;;;12.20;84.40;;;;;;4455337;32;20484;-68
2022/03/30 10:42:50;;;;;;;14.10;6.80;;;12.10;86.30;;;;;;4450158;32;20570;-69
2022/03/30 10:45:43;;;;;;;16.27;6.87;;;11.90;81.40;;;;;;4447801;32;20212;-69
2022/03/30 10:48:28;;;;;;;14.90;7.33;;;11.90;84.70;;;;;;4455536;32;20201;-67
2022/03/30 10:51:18;;;;;;;15.17;6.83;;;11.90;81.50;;;;;;4456469;32;20150;-67
2022/03/30 10:53:50;;;;;;;13.00;6.70;;;11.80;83.60;;;;;;4377991;32;20466;-68
2022/03/30 10:56:24;;;;;;;10.27;6.10;;;11.80;86.10;;;;;;4373674;32;20252;-68
2022/03/30 10:59:00;;;;;;;11.53;6.20;;;12.60;84.70;;;;;;4370727;32;20526;-68
2022/03/30 11:01:32;;;;;;;10.47;5.53;;;13.20;78.70;;;;;;4383969;32;20439;-68
2022/03/30 11:04:02;;;;;;;10.87;5.93;;;13.20;74.70;;;;;;4375823;32;20171;-68
2022/03/30 11:06:33;;;;;;;10.60;6.20;;;12.60;77.00;;;;;;4389196;32;20413;-68
2022/03/30 11:09:01;;;;;;;14.40;6.20;;;12.10;76.70;;;;;;4377245;32;20240;-69
2022/03/30 11:11:39;;;;;;;11.87;5.73;;;11.50;80.20;;;;;;4369567;32;20597;-68
2022/03/30 11:14:26;;;;;;;13.80;5.60;;;11.40;80.20;;;;;;4377997;32;20206;-68
2022/03/30 11:16:55;;;;;;;12.87;5.30;;;11.40;80.40;;;;;;4374020;32;20209;-68
2022/03/30 11:19:29;;;;;;;11.07;4.70;;;11.00;79.30;;;;;;4369345;32;20543;-67
2022/03/30 11:22:11;;;;;;;10.60;4.47;;;11.20;79.10;;;;;;4373694;32;20214;-67
2022/03/30 11:24:41;;;;;;;11.37;4.50;;;10.90;79.60;;;;;;4366393;32;20218;-68
2022/03/30 11:27:08;;;;;;;12.80;4.30;;;10.80;80.30;;;;;;4377128;32;20264;-68
2022/03/30 11:29:47;;;;;;;12.20;4.13;;;10.90;80.50;;;;;;4371870;32;20248;-68
2022/03/30 11:32:23;;;;;;;11.63;4.03;;;11.10;79.50;;;;;;4450132;32;20181;-68
2022/03/30 11:34:58;;;;;;;11.23;3.83;;;10.90;78.40;;;;;;4452690;32;20196;-68
2022/03/30 11:37:36;;;;;;;9.70;3.47;;;11.00;79.00;;;;;;4435626;32;20434;-69
2022/03/30 11:40:15;;;;;;;11.77;4.23;;;11.10;76.90;;;;;;4444713;32;20212;-68
2022/03/30 11:42:52;;;;;;;13.87;4.53;;;11.40;79.30;;;;;;4451909;32;20561;-69
2022/03/30 11:45:38;;;;;;;8.97;4.07;;;11.80;78.30;;;;;;4447304;32;20214;-68
2022/03/30 11:48:13;;;;;;;12.83;5.47;;;12.90;73.70;;;;;;4445294;32;20431;-68
2022/03/30 11:50:43;;;;;;;12.60;6.17;;;12.20;74.30;;;;;;4452876;32;20167;-68
2022/03/30 11:53:18;;;;;;;10.43;5.37;;;11.90;77.70;;;;;;4451916;32;20527;-69
2022/03/30 11:55:55;;;;;;;14.93;5.80;;;11.60;76.80;;;;;;4453537;32;20208;-68
2022/03/30 11:58:40;;;;;;;10.30;5.27;;;11.20;79.40;;;;;;4448240;32;20204;-67
2022/03/30 12:01:09;;;;;;;10.83;5.13;;;11.60;81.50;;;;;;4439033;32;20237;-68
2022/03/30 12:03:37;;;;;;;13.20;5.17;;;12.40;80.00;;;;;;4452465;32;20700;-66
2022/03/30 12:06:06;;;;;;;10.57;4.83;;;12.80;79.00;;;;;;4446584;32;20190;-67
2022/03/30 12:08:45;;;;;;;11.20;4.97;;;12.80;75.50;;;;;;4451563;32;20185;-67
2022/03/30 12:11:13;;;;;;;13.07;5.07;;;13.10;73.80;;;;;;4451298;32;20540;-67
2022/03/30 12:13:41;;;;;;;13.93;4.47;;;13.10;72.70;;;;;;4452079;32;20635;-68
2022/03/30 12:16:15;;;;;;;12.47;4.60;;;13.90;71.70;;;;;;4451285;32;20225;-67
2022/03/30 12:18:43;;;;;;;10.77;4.43;;;14.00;66.50;;;;;;4450140;32;20249;-67
2022/03/30 12:21:13;;;;;;;11.80;4.40;;;13.80;68.00;;;;;;4448818;32;20188;-67
2022/03/30 12:23:55;;;;;;;9.03;3.93;;;13.50;68.40;;;;;;4450826;32;20248;-69
2022/03/30 12:26:42;;;;;;;11.20;4.37;;;13.50;70.30;;;;;;4452734;32;20252;-67
2022/03/30 12:29:14;;;;;;;9.83;4.00;;;13.60;66.90;;;;;;4453179;32;20601;-67
2022/03/30 12:31:51;;;;;;;8.93;3.80;;;13.60;66.30;;;;;;4451553;32;20221;-67
2022/03/30 12:34:20;;;;;;;10.07;4.30;;;13.80;65.70;;;;;;4451960;32;20234;-67
2022/03/30 12:36:50;;;;;;;9.17;4.63;;;13.50;65.80;;;;;;4452837;32;20205;-68
2022/03/30 12:39:20;;;;;;;12.10;4.50;;;13.90;65.90;;;;;;4453065;32;20170;-68
2022/03/30 12:42:16;;;;;;;12.00;4.77;;;13.70;66.50;;;;;;4452266;32;20234;-67
2022/03/30 12:44:50;;;;;;;9.93;4.23;;;13.00;65.80;;;;;;4450251;32;20181;-69
2022/03/30 12:47:30;;;;;;;9.27;4.30;;;12.50;68.90;;;;;;4451840;32;20227;-69
2022/03/30 12:49:59;;;;;;;15.10;5.10;;;12.90;71.30;;;;;;4452837;32;20153;-69
2022/03/30 12:52:32;;;;;;;11.43;4.57;;;13.30;67.60;;;;;;4453621;32;20234;-69
2022/03/30 12:55:17;;;;;;;11.83;4.13;;;12.90;67.60;;;;;;4454205;32;20172;-69
2022/03/30 12:58:13;;;;;;;13.47;4.00;;;12.60;66.80;;;;;;4455290;32;20631;-69